Terminal Aerodrome Forecast
Issued by NWS

Home | Current Version | Previous Version | Text Only | Print | Product List | Glossary On
Versions: 1 2 3 4 5 6 7 8 9 10 11 12 13 14 15
000
FTUS41 KGYX 281120
TAFHIE
TAF
KHIE 281120Z 2812/2912 31006KT P6SM SCT040
      TEMPO 2812/2813 2SM BR
     FM281600 31010G18KT P6SM BKN050
     FM282300 29003KT P6SM SCT050
     FM290800 VRB03KT 2SM BR BKN002=

USA.gov is the U.S. government's official web portal to all federal, state and local government web resources and services.